sensor_id;sensor_type;location;lat;lon;timestamp;pressure;altitude;pressure_sealevel;temperature;humidity
78198;BME280;67472;51.554;7.812;2024-03-23T00:55:06;100163.25;;;8.74;100.00
78198;BME280;67472;51.554;7.812;2024-03-23T00:57:52;100150.06;;;8.65;100.00
78198;BME280;67472;51.554;7.812;2024-03-23T01:00:38;100139.34;;;8.45;100.00
78198;BME280;67472;51.554;7.812;2024-03-23T01:03:23;100146.03;;;8.49;100.00
78198;BME280;67472;51.554;7.812;2024-03-23T01:06:09;100150.88;;;8.33;100.00
78198;BME280;67472;51.554;7.812;2024-03-23T01:08:55;100150.00;;;8.12;100.00
78198;BME280;67472;51.554;7.812;2024-03-23T01:11:42;100149.34;;;8.20;100.00
78198;BME280;67472;51.554;7.812;2024-03-23T01:14:27;100147.97;;;8.05;100.00
78198;BME280;67472;51.554;7.812;2024-03-23T01:17:13;100146.34;;;7.81;100.00
78198;BME280;67472;51.554;7.812;2024-03-23T01:19:58;100144.94;;;7.33;100.00
78198;BME280;67472;51.554;7.812;2024-03-23T01:22:44;100139.44;;;7.58;100.00
78198;BME280;67472;51.554;7.812;2024-03-23T01:25:30;100130.63;;;7.48;100.00
78198;BME280;67472;51.554;7.812;2024-03-23T01:28:16;100119.50;;;7.00;100.00
78198;BME280;67472;51.554;7.812;2024-03-23T01:31:01;100124.41;;;7.38;100.00
78198;BME280;67472;51.554;7.812;2024-03-23T01:33:47;100119.28;;;7.14;100.00
78198;BME280;67472;51.554;7.812;2024-03-23T01:36:32;100124.41;;;7.38;100.00
78198;BME280;67472;51.554;7.812;2024-03-23T01:39:18;100119.50;;;7.45;100.00
78198;BME280;67472;51.554;7.812;2024-03-23T01:42:05;100104.56;;;7.56;100.00
78198;BME280;67472;51.554;7.812;2024-03-23T01:44:51;100093.56;;;7.62;100.00
78198;BME280;67472;51.554;7.812;2024-03-23T01:47:36;100087.25;;;7.54;100.00
78198;BME280;67472;51.554;7.812;2024-03-23T01:50:22;100084.16;;;7.60;100.00
78198;BME280;67472;51.554;7.812;2024-03-23T01:53:08;100098.94;;;7.61;100.00
78198;BME280;67472;51.554;7.812;2024-03-23T01:55:55;100087.66;;;7.81;100.00
78198;BME280;67472;51.554;7.812;2024-03-23T01:58:43;100083.59;;;7.88;100.00
78198;BME280;67472;51.554;7.812;2024-03-23T02:01:30;100073.56;;;7.82;100.00
78198;BME280;67472;51.554;7.812;2024-03-23T02:04:15;100066.75;;;7.79;100.00
78198;BME280;67472;51.554;7.812;2024-03-23T02:07:01;100060.31;;;7.83;100.00
78198;BME280;67472;51.554;7.812;2024-03-23T02:09:46;100068.91;;;7.85;100.00
78198;BME280;67472;51.554;7.812;2024-03-23T02:12:33;100063.41;;;7.88;100.00
78198;BME280;67472;51.554;7.812;2024-03-23T02:15:19;100081.50;;;8.03;100.00
78198;BME280;67472;51.554;7.812;2024-03-23T02:18:07;100069.66;;;8.08;100.00
78198;BME280;67472;51.554;7.812;2024-03-23T02:20:52;100077.19;;;8.02;100.00
78198;BME280;67472;51.554;7.812;2024-03-23T02:23:39;100064.97;;;8.12;100.00
78198;BME280;67472;51.554;7.812;2024-03-23T02:26:24;100052.06;;;8.09;100.00
78198;BME280;67472;51.554;7.812;2024-03-23T02:29:10;100057.94;;;8.12;100.00
78198;BME280;67472;51.554;7.812;2024-03-23T02:31:55;100054.91;;;8.17;100.00
78198;BME280;67472;51.554;7.812;2024-03-23T02:34:41;100057.63;;;8.26;100.00
78198;BME280;67472;51.554;7.812;2024-03-23T02:37:26;100060.97;;;8.28;100.00
78198;BME280;67472;51.554;7.812;2024-03-23T02:40:14;100057.50;;;8.28;100.00
78198;BME280;67472;51.554;7.812;2024-03-23T02:42:59;100053.75;;;8.10;100.00
78198;BME280;67472;51.554;7.812;2024-03-23T02:45:45;100058.72;;;8.13;100.00
78198;BME280;67472;51.554;7.812;2024-03-23T02:48:30;100055.00;;;7.94;100.00
78198;BME280;67472;51.554;7.812;2024-03-23T02:51:16;100049.50;;;7.97;100.00
78198;BME280;67472;51.554;7.812;2024-03-23T02:54:01;100054.66;;;7.88;100.00
78198;BME280;67472;51.554;7.812;2024-03-23T02:56:50;100059.19;;;7.97;100.00
78198;BME280;67472;51.554;7.812;2024-03-23T02:59:34;100052.03;;;7.88;100.00
78198;BME280;67472;51.554;7.812;2024-03-23T03:02:21;100047.19;;;7.72;100.00
78198;BME280;67472;51.554;7.812;2024-03-23T03:05:06;100050.53;;;7.74;100.00
78198;BME280;67472;51.554;7.812;2024-03-23T03:07:53;100050.22;;;7.57;100.00
78198;BME280;67472;51.554;7.812;2024-03-23T03:10:39;100034.94;;;7.51;100.00
78198;BME280;67472;51.554;7.812;2024-03-23T03:13:26;100030.03;;;7.57;100.00
78198;BME280;67472;51.554;7.812;2024-03-23T03:16:12;100034.22;;;7.60;100.00
78198;BME280;67472;51.554;7.812;2024-03-23T03:18:59;100032.31;;;7.51;100.00
78198;BME280;67472;51.554;7.812;2024-03-23T03:21:44;100043.19;;;7.57;100.00
78198;BME280;67472;51.554;7.812;2024-03-23T03:24:32;100049.75;;;7.40;100.00
78198;BME280;67472;51.554;7.812;2024-03-23T03:27:18;100049.66;;;7.42;100.00
78198;BME280;67472;51.554;7.812;2024-03-23T03:30:06;100052.00;;;7.56;100.00
78198;BME280;67472;51.554;7.812;2024-03-23T03:32:53;100063.16;;;7.49;100.00
78198;BME280;67472;51.554;7.812;2024-03-23T03:35:39;100065.78;;;7.37;100.00
78198;BME280;67472;51.554;7.812;2024-03-23T03:38:24;100053.69;;;7.46;100.00
78198;BME280;67472;51.554;7.812;2024-03-23T03:41:10;100046.56;;;7.37;100.00
78198;BME280;67472;51.554;7.812;2024-03-23T03:43:55;100045.97;;;7.33;100.00
78198;BME280;67472;51.554;7.812;2024-03-23T03:46:47;100050.59;;;7.41;100.00
78198;BME280;67472;51.554;7.812;2024-03-23T03:49:32;100053.25;;;7.30;100.00
78198;BME280;67472;51.554;7.812;2024-03-23T03:52:18;100044.75;;;7.37;100.00
78198;BME280;67472;51.554;7.812;2024-03-23T03:55:11;100040.38;;;7.27;100.00
78198;BME280;67472;51.554;7.812;2024-03-23T03:57:58;100027.94;;;7.18;100.00
78198;BME280;67472;51.554;7.812;2024-03-23T04:00:43;100014.47;;;7.22;100.00
78198;BME280;67472;51.554;7.812;2024-03-23T04:03:30;100018.25;;;7.29;100.00
78198;BME280;67472;51.554;7.812;2024-03-23T04:06:18;100011.03;;;7.11;100.00
78198;BME280;67472;51.554;7.812;2024-03-23T04:09:03;100020.22;;;7.16;100.00
78198;BME280;67472;51.554;7.812;2024-03-23T04:11:51;100029.34;;;7.44;100.00
78198;BME280;67472;51.554;7.812;2024-03-23T04:14:36;100034.09;;;7.50;100.00
78198;BME280;67472;51.554;7.812;2024-03-23T04:17:22;100021.50;;;7.00;100.00
78198;BME280;67472;51.554;7.812;2024-03-23T04:20:11;100018.84;;;7.44;100.00
78198;BME280;67472;51.554;7.812;2024-03-23T04:22:59;100005.72;;;7.33;100.00
78198;BME280;67472;51.554;7.812;2024-03-23T04:25:45;100008.91;;;7.48;100.00
78198;BME280;67472;51.554;7.812;2024-03-23T04:28:30;99993.75;;;7.51;100.00
78198;BME280;67472;51.554;7.812;2024-03-23T04:31:16;100005.56;;;7.57;100.00
78198;BME280;67472;51.554;7.812;2024-03-23T04:34:04;99994.19;;;7.56;100.00
78198;BME280;67472;51.554;7.812;2024-03-23T04:36:52;99987.94;;;7.68;100.00
78198;BME280;67472;51.554;7.812;2024-03-23T04:39:37;99998.25;;;7.60;100.00
78198;BME280;67472;51.554;7.812;2024-03-23T04:42:23;100005.06;;;7.52;100.00
78198;BME280;67472;51.554;7.812;2024-03-23T04:45:09;100018.44;;;7.60;100.00
78198;BME280;67472;51.554;7.812;2024-03-23T04:47:56;100010.91;;;7.55;100.00
78198;BME280;67472;51.554;7.812;2024-03-23T04:50:42;100003.28;;;7.52;100.00
78198;BME280;67472;51.554;7.812;2024-03-23T04:53:29;99983.84;;;7.44;100.00
78198;BME280;67472;51.554;7.812;2024-03-23T04:56:16;99991.38;;;7.48;100.00
78198;BME280;67472;51.554;7.812;2024-03-23T04:59:03;99977.44;;;7.36;100.00
78198;BME280;67472;51.554;7.812;2024-03-23T05:01:49;99980.75;;;7.38;100.00
78198;BME280;67472;51.554;7.812;2024-03-23T05:04:35;99982.53;;;7.38;100.00
78198;BME280;67472;51.554;7.812;2024-03-23T05:07:21;99981.59;;;7.39;100.00
78198;BME280;67472;51.554;7.812;2024-03-23T05:10:10;99989.13;;;7.32;100.00
78198;BME280;67472;51.554;7.812;2024-03-23T05:12:55;99976.19;;;7.40;100.00
78198;BME280;67472;51.554;7.812;2024-03-23T05:15:41;99979.06;;;7.37;100.00
78198;BME280;67472;51.554;7.812;2024-03-23T05:18:26;99976.34;;;7.39;100.00
78198;BME280;67472;51.554;7.812;2024-03-23T05:21:13;99976.25;;;7.29;100.00
78198;BME280;67472;51.554;7.812;2024-03-23T05:23:58;99972.41;;;7.33;100.00
78198;BME280;67472;51.554;7.812;2024-03-23T05:26:45;99979.56;;;7.31;100.00
78198;BME280;67472;51.554;7.812;2024-03-23T05:29:30;99983.19;;;7.19;100.00
78198;BME280;67472;51.554;7.812;2024-03-23T05:32:16;99978.91;;;7.18;100.00
78198;BME280;67472;51.554;7.812;2024-03-23T05:35:01;99981.66;;;7.06;100.00
78198;BME280;67472;51.554;7.812;2024-03-23T05:37:47;99973.66;;;7.07;100.00
78198;BME280;67472;51.554;7.812;2024-03-23T05:40:32;99981.31;;;7.10;100.00
78198;BME280;67472;51.554;7.812;2024-03-23T05:43:23;99986.53;;;7.21;100.00
78198;BME280;67472;51.554;7.812;2024-03-23T05:46:08;99980.56;;;7.08;100.00
78198;BME280;67472;51.554;7.812;2024-03-23T05:49:01;99991.09;;;6.97;100.00
78198;BME280;67472;51.554;7.812;2024-03-23T05:51:48;99996.25;;;6.99;100.00
78198;BME280;67472;51.554;7.812;2024-03-23T05:54:33;100004.13;;;6.99;100.00
78198;BME280;67472;51.554;7.812;2024-03-23T05:57:19;99995.63;;;7.06;100.00
78198;BME280;67472;51.554;7.812;2024-03-23T06:00:07;100006.97;;;7.07;100.00
78198;BME280;67472;51.554;7.812;2024-03-23T06:03:00;100004.56;;;7.04;100.00
78198;BME280;67472;51.554;7.812;2024-03-23T06:05:45;100006.94;;;7.18;100.00
78198;BME280;67472;51.554;7.812;2024-03-23T06:08:32;99997.88;;;7.00;100.00
78198;BME280;67472;51.554;7.812;2024-03-23T06:11:17;100007.69;;;6.98;100.00
78198;BME280;67472;51.554;7.812;2024-03-23T06:14:03;99999.19;;;7.05;100.00
78198;BME280;67472;51.554;7.812;2024-03-23T06:16:50;100001.19;;;7.24;100.00
78198;BME280;67472;51.554;7.812;2024-03-23T06:19:36;99993.59;;;7.10;100.00
78198;BME280;67472;51.554;7.812;2024-03-23T06:22:21;99989.50;;;7.17;100.00
78198;BME280;67472;51.554;7.812;2024-03-23T06:25:08;100000.59;;;7.20;100.00
78198;BME280;67472;51.554;7.812;2024-03-23T06:27:53;99991.22;;;6.96;100.00
78198;BME280;67472;51.554;7.812;2024-03-23T06:30:39;100000.88;;;6.95;100.00
78198;BME280;67472;51.554;7.812;2024-03-23T06:33:25;100013.63;;;7.22;100.00
78198;BME280;67472;51.554;7.812;2024-03-23T06:36:12;100008.88;;;7.16;100.00
78198;BME280;67472;51.554;7.812;2024-03-23T06:38:57;100025.44;;;7.27;100.00
78198;BME280;67472;51.554;7.812;2024-03-23T06:41:51;100020.41;;;7.35;100.00
78198;BME280;67472;51.554;7.812;2024-03-23T06:44:37;100020.31;;;7.15;100.00
78198;BME280;67472;51.554;7.812;2024-03-23T06:47:23;100016.03;;;7.25;100.00
78198;BME280;67472;51.554;7.812;2024-03-23T06:50:11;100028.41;;;7.23;100.00
78198;BME280;67472;51.554;7.812;2024-03-23T06:52:57;100018.38;;;7.17;100.00
78198;BME280;67472;51.554;7.812;2024-03-23T06:55:50;100026.25;;;7.39;100.00
78198;BME280;67472;51.554;7.812;2024-03-23T06:58:36;100017.81;;;7.24;100.00
78198;BME280;67472;51.554;7.812;2024-03-23T07:01:21;100018.16;;;7.09;100.00
78198;BME280;67472;51.554;7.812;2024-03-23T07:04:07;100028.44;;;7.12;100.00
78198;BME280;67472;51.554;7.812;2024-03-23T07:06:54;100023.16;;;7.23;100.00
78198;BME280;67472;51.554;7.812;2024-03-23T07:09:40;100026.88;;;7.20;100.00
78198;BME280;67472;51.554;7.812;2024-03-23T07:12:25;100038.22;;;7.21;100.00
78198;BME280;67472;51.554;7.812;2024-03-23T07:15:11;100045.63;;;7.27;100.00
78198;BME280;67472;51.554;7.812;2024-03-23T07:17:56;100043.81;;;7.38;100.00
78198;BME280;67472;51.554;7.812;2024-03-23T07:20:45;100036.66;;;7.29;100.00
78198;BME280;67472;51.554;7.812;2024-03-23T07:23:37;100047.47;;;7.58;100.00
78198;BME280;67472;51.554;7.812;2024-03-23T07:26:26;100055.28;;;7.49;100.00
78198;BME280;67472;51.554;7.812;2024-03-23T07:29:12;100045.78;;;7.68;100.00
78198;BME280;67472;51.554;7.812;2024-03-23T07:31:58;100055.19;;;7.71;100.00
78198;BME280;67472;51.554;7.812;2024-03-23T07:34:43;100052.31;;;7.74;100.00
78198;BME280;67472;51.554;7.812;2024-03-23T07:37:30;100059.09;;;7.87;100.00
78198;BME280;67472;51.554;7.812;2024-03-23T07:40:16;100050.53;;;8.06;100.00
78198;BME280;67472;51.554;7.812;2024-03-23T07:43:03;100044.88;;;8.11;100.00
78198;BME280;67472;51.554;7.812;2024-03-23T07:45:51;100047.97;;;8.16;100.00
78198;BME280;67472;51.554;7.812;2024-03-23T07:48:38;100034.75;;;8.06;100.00
78198;BME280;67472;51.554;7.812;2024-03-23T07:51:25;100041.66;;;8.07;100.00
78198;BME280;67472;51.554;7.812;2024-03-23T07:54:12;100035.03;;;8.24;100.00
78198;BME280;67472;51.554;7.812;2024-03-23T07:56:59;100032.56;;;8.11;100.00
78198;BME280;67472;51.554;7.812;2024-03-23T07:59:44;100027.97;;;8.45;100.00
78198;BME280;67472;51.554;7.812;2024-03-23T08:02:29;100017.56;;;8.23;100.00
78198;BME280;67472;51.554;7.812;2024-03-23T08:05:16;100010.28;;;8.47;100.00
78198;BME280;67472;51.554;7.812;2024-03-23T08:08:02;100010.53;;;8.65;100.00
78198;BME280;67472;51.554;7.812;2024-03-23T08:10:49;100013.34;;;8.82;100.00
78198;BME280;67472;51.554;7.812;2024-03-23T08:13:38;100007.03;;;9.34;100.00
78198;BME280;67472;51.554;7.812;2024-03-23T08:16:26;100002.31;;;9.47;100.00
78198;BME280;67472;51.554;7.812;2024-03-23T08:19:12;99987.44;;;9.27;100.00
78198;BME280;67472;51.554;7.812;2024-03-23T08:21:59;99979.94;;;9.13;100.00
78198;BME280;67472;51.554;7.812;2024-03-23T08:24:45;99971.03;;;9.04;100.00
78198;BME280;67472;51.554;7.812;2024-03-23T08:27:32;99983.84;;;9.28;100.00
78198;BME280;67472;51.554;7.812;2024-03-23T08:30:19;99982.88;;;9.29;100.00
78198;BME280;67472;51.554;7.812;2024-03-23T08:33:06;99978.31;;;9.31;100.00
78198;BME280;67472;51.554;7.812;2024-03-23T08:35:56;99980.41;;;9.47;100.00
78198;BME280;67472;51.554;7.812;2024-03-23T08:38:42;99989.97;;;9.38;100.00
78198;BME280;67472;51.554;7.812;2024-03-23T08:41:28;99976.94;;;9.46;100.00
78198;BME280;67472;51.554;7.812;2024-03-23T08:44:14;99981.19;;;9.19;100.00
78198;BME280;67472;51.554;7.812;2024-03-23T08:47:02;99970.19;;;9.04;100.00
78198;BME280;67472;51.554;7.812;2024-03-23T08:49:49;99966.50;;;9.26;100.00
78198;BME280;67472;51.554;7.812;2024-03-23T08:52:35;99967.63;;;9.33;100.00
78198;BME280;67472;51.554;7.812;2024-03-23T08:55:22;99959.69;;;9.14;100.00
78198;BME280;67472;51.554;7.812;2024-03-23T08:58:08;99957.41;;;9.49;100.00
78198;BME280;67472;51.554;7.812;2024-03-23T09:00:56;99939.91;;;9.48;100.00
78198;BME280;67472;51.554;7.812;2024-03-23T09:03:43;99950.44;;;9.86;100.00
78198;BME280;67472;51.554;7.812;2024-03-23T09:06:30;99950.84;;;10.01;100.00
78198;BME280;67472;51.554;7.812;2024-03-23T09:09:16;99942.09;;;9.52;100.00
78198;BME280;67472;51.554;7.812;2024-03-23T09:12:05;99940.47;;;9.51;100.00
78198;BME280;67472;51.554;7.812;2024-03-23T09:14:51;99948.91;;;9.36;100.00
78198;BME280;67472;51.554;7.812;2024-03-23T09:17:38;99941.25;;;9.23;100.00
78198;BME280;67472;51.554;7.812;2024-03-23T09:20:25;99953.34;;;9.26;100.00
78198;BME280;67472;51.554;7.812;2024-03-23T09:23:12;99942.41;;;9.40;100.00
78198;BME280;67472;51.554;7.812;2024-03-23T09:26:02;99933.09;;;9.45;100.00
78198;BME280;67472;51.554;7.812;2024-03-23T09:28:49;99931.28;;;9.27;100.00
78198;BME280;67472;51.554;7.812;2024-03-23T09:31:34;99936.41;;;9.38;100.00
78198;BME280;67472;51.554;7.812;2024-03-23T09:34:20;99931.38;;;9.06;100.00
78198;BME280;67472;51.554;7.812;2024-03-23T09:37:07;99920.03;;;9.25;100.00
78198;BME280;67472;51.554;7.812;2024-03-23T09:39:53;99927.00;;;9.45;100.00
78198;BME280;67472;51.554;7.812;2024-03-23T09:42:38;99916.97;;;9.29;100.00
78198;BME280;67472;51.554;7.812;2024-03-23T09:45:27;99902.13;;;9.66;100.00
78198;BME280;67472;51.554;7.812;2024-03-23T09:48:13;99897.69;;;9.77;100.00
78198;BME280;67472;51.554;7.812;2024-03-23T09:50:59;99902.25;;;9.94;100.00
78198;BME280;67472;51.554;7.812;2024-03-23T09:53:45;99906.94;;;10.19;100.00
78198;BME280;67472;51.554;7.812;2024-03-23T09:56:31;99899.03;;;10.09;100.00
78198;BME280;67472;51.554;7.812;2024-03-23T09:59:16;99899.47;;;10.51;100.00
78198;BME280;67472;51.554;7.812;2024-03-23T10:02:03;99893.41;;;10.68;100.00
78198;BME280;67472;51.554;7.812;2024-03-23T10:04:48;99872.53;;;10.48;100.00
78198;BME280;67472;51.554;7.812;2024-03-23T10:07:35;99873.78;;;10.53;100.00
78198;BME280;67472;51.554;7.812;2024-03-23T10:10:24;99876.22;;;10.64;100.00
78198;BME280;67472;51.554;7.812;2024-03-23T10:13:11;99884.41;;;10.34;100.00
78198;BME280;67472;51.554;7.812;2024-03-23T10:16:10;99897.25;;;9.91;100.00
78198;BME280;67472;51.554;7.812;2024-03-23T10:18:55;99894.09;;;9.58;100.00
78198;BME280;67472;51.554;7.812;2024-03-23T10:21:52;99890.50;;;9.69;100.00
78198;BME280;67472;51.554;7.812;2024-03-23T10:24:37;99900.34;;;9.86;100.00
78198;BME280;67472;51.554;7.812;2024-03-23T10:27:25;99895.41;;;10.20;100.00
78198;BME280;67472;51.554;7.812;2024-03-23T10:30:12;99892.28;;;10.44;100.00
78198;BME280;67472;51.554;7.812;2024-03-23T10:33:07;99897.25;;;10.00;100.00
78198;BME280;67472;51.554;7.812;2024-03-23T10:35:53;99904.22;;;9.92;100.00
78198;BME280;67472;51.554;7.812;2024-03-23T10:38:40;99901.41;;;10.59;100.00
78198;BME280;67472;51.554;7.812;2024-03-23T10:41:27;99877.78;;;10.48;100.00
78198;BME280;67472;51.554;7.812;2024-03-23T10:44:16;99876.38;;;10.81;100.00
78198;BME280;67472;51.554;7.812;2024-03-23T10:47:03;99870.47;;;10.69;100.00
78198;BME280;67472;51.554;7.812;2024-03-23T10:49:49;99867.13;;;10.94;100.00
78198;BME280;67472;51.554;7.812;2024-03-23T10:52:35;99855.66;;;11.21;100.00
78198;BME280;67472;51.554;7.812;2024-03-23T10:55:23;99867.22;;;11.02;100.00
78198;BME280;67472;51.554;7.812;2024-03-23T10:58:09;99851.44;;;11.10;100.00
78198;BME280;67472;51.554;7.812;2024-03-23T11:00:58;99842.78;;;11.61;100.00
78198;BME280;67472;51.554;7.812;2024-03-23T11:03:46;99833.69;;;11.81;100.00
78198;BME280;67472;51.554;7.812;2024-03-23T11:06:35;99826.03;;;11.70;100.00
78198;BME280;67472;51.554;7.812;2024-03-23T11:09:39;99833.41;;;11.84;100.00
78198;BME280;67472;51.554;7.812;2024-03-23T11:12:26;99825.72;;;11.56;100.00
78198;BME280;67472;51.554;7.812;2024-03-23T11:15:13;99807.81;;;11.93;98.40
78198;BME280;67472;51.554;7.812;2024-03-23T11:18:07;99801.44;;;12.04;96.18
78198;BME280;67472;51.554;7.812;2024-03-23T11:20:54;99808.34;;;11.97;97.14
78198;BME280;67472;51.554;7.812;2024-03-23T11:23:39;99786.31;;;11.45;91.16
78198;BME280;67472;51.554;7.812;2024-03-23T11:26:26;99795.34;;;10.81;89.62
78198;BME280;67472;51.554;7.812;2024-03-23T11:29:12;99845.22;;;10.57;94.28
78198;BME280;67472;51.554;7.812;2024-03-23T11:31:59;99872.59;;;10.29;100.00
78198;BME280;67472;51.554;7.812;2024-03-23T11:34:49;99854.47;;;10.06;100.00
78198;BME280;67472;51.554;7.812;2024-03-23T11:37:36;99858.81;;;9.88;100.00
78198;BME280;67472;51.554;7.812;2024-03-23T11:40:22;99838.00;;;9.85;97.88
78198;BME280;67472;51.554;7.812;2024-03-23T11:43:10;99852.28;;;9.92;98.95
78198;BME280;67472;51.554;7.812;2024-03-23T11:45:56;99896.75;;;9.78;100.00
78198;BME280;67472;51.554;7.812;2024-03-23T11:48:49;99933.16;;;8.96;100.00
78198;BME280;67472;51.554;7.812;2024-03-23T11:51:37;99986.69;;;7.83;100.00
78198;BME280;67472;51.554;7.812;2024-03-23T11:54:23;100010.75;;;7.25;100.00
78198;BME280;67472;51.554;7.812;2024-03-23T11:57:10;100013.66;;;6.89;100.00
78198;BME280;67472;51.554;7.812;2024-03-23T11:59:56;100028.22;;;6.93;100.00
78198;BME280;67472;51.554;7.812;2024-03-23T12:02:42;100023.31;;;6.88;100.00
78198;BME280;67472;51.554;7.812;2024-03-23T12:05:28;99997.66;;;7.03;100.00
78198;BME280;67472;51.554;7.812;2024-03-23T12:08:20;99991.69;;;7.55;100.00
78198;BME280;67472;51.554;7.812;2024-03-23T12:11:07;99976.34;;;7.71;100.00
78198;BME280;67472;51.554;7.812;2024-03-23T12:13:59;99963.03;;;8.25;100.00
78198;BME280;67472;51.554;7.812;2024-03-23T12:16:45;99948.34;;;8.73;100.00
78198;BME280;67472;51.554;7.812;2024-03-23T12:19:31;99928.63;;;9.27;100.00
78198;BME280;67472;51.554;7.812;2024-03-23T12:22:20;99908.97;;;9.59;100.00
78198;BME280;67472;51.554;7.812;2024-03-23T12:25:08;99893.09;;;9.79;100.00
78198;BME280;67472;51.554;7.812;2024-03-23T12:27:53;99881.03;;;9.76;100.00
78198;BME280;67472;51.554;7.812;2024-03-23T12:30:39;99883.22;;;10.09;100.00
78198;BME280;67472;51.554;7.812;2024-03-23T12:33:25;99869.88;;;10.20;100.00
78198;BME280;67472;51.554;7.812;2024-03-23T12:36:11;99882.91;;;10.59;100.00
78198;BME280;67472;51.554;7.812;2024-03-23T12:38:56;99860.03;;;10.50;100.00
78198;BME280;67472;51.554;7.812;2024-03-23T12:41:44;99876.88;;;10.94;100.00
78198;BME280;67472;51.554;7.812;2024-03-23T12:44:29;99865.50;;;10.66;100.00
78198;BME280;67472;51.554;7.812;2024-03-23T12:47:16;99847.75;;;10.21;100.00
78198;BME280;67472;51.554;7.812;2024-03-23T12:50:01;99867.72;;;10.34;100.00
78198;BME280;67472;51.554;7.812;2024-03-23T12:52:47;99855.16;;;10.18;100.00
78198;BME280;67472;51.554;7.812;2024-03-23T12:55:34;99850.44;;;10.02;100.00
78198;BME280;67472;51.554;7.812;2024-03-23T12:58:22;99853.97;;;9.84;100.00
78198;BME280;67472;51.554;7.812;2024-03-23T13:01:16;99852.56;;;9.89;100.00
78198;BME280;67472;51.554;7.812;2024-03-23T13:04:04;99853.09;;;9.93;100.00
78198;BME280;67472;51.554;7.812;2024-03-23T13:06:49;99846.31;;;9.90;100.00
78198;BME280;67472;51.554;7.812;2024-03-23T13:09:35;99846.56;;;10.43;100.00
78198;BME280;67472;51.554;7.812;2024-03-23T13:12:20;99830.97;;;10.23;100.00
78198;BME280;67472;51.554;7.812;2024-03-23T13:15:07;99816.03;;;9.94;96.14
78198;BME280;67472;51.554;7.812;2024-03-23T13:17:54;99852.03;;;9.86;100.00
78198;BME280;67472;51.554;7.812;2024-03-23T13:20:40;99879.66;;;9.43;100.00
78198;BME280;67472;51.554;7.812;2024-03-23T13:23:26;99863.56;;;9.46;100.00
78198;BME280;67472;51.554;7.812;2024-03-23T13:26:12;99868.88;;;9.37;100.00
78198;BME280;67472;51.554;7.812;2024-03-23T13:28:58;99872.91;;;10.26;100.00
78198;BME280;67472;51.554;7.812;2024-03-23T13:31:43;99877.00;;;10.92;100.00
78198;BME280;67472;51.554;7.812;2024-03-23T13:34:30;99866.31;;;11.47;100.00
78198;BME280;67472;51.554;7.812;2024-03-23T13:37:16;99826.22;;;11.33;94.99
78198;BME280;67472;51.554;7.812;2024-03-23T13:40:03;99830.72;;;11.41;93.20
78198;BME280;67472;51.554;7.812;2024-03-23T13:42:49;99814.13;;;11.31;90.82
78198;BME280;67472;51.554;7.812;2024-03-23T13:45:35;99798.84;;;11.43;88.42
78198;BME280;67472;51.554;7.812;2024-03-23T13:48:22;99797.81;;;11.61;87.63
78198;BME280;67472;51.554;7.812;2024-03-23T13:51:10;99786.03;;;11.12;84.87
78198;BME280;67472;51.554;7.812;2024-03-23T13:53:56;99784.31;;;11.03;86.30
78198;BME280;67472;51.554;7.812;2024-03-23T13:56:45;99787.97;;;10.57;84.59
78198;BME280;67472;51.554;7.812;2024-03-23T13:59:31;99794.47;;;10.18;85.42
78198;BME280;67472;51.554;7.812;2024-03-23T14:02:17;99845.44;;;9.99;88.71
78198;BME280;67472;51.554;7.812;2024-03-23T14:05:02;99925.91;;;8.88;100.00
78198;BME280;67472;51.554;7.812;2024-03-23T14:07:50;99960.63;;;7.60;100.00
78198;BME280;67472;51.554;7.812;2024-03-23T14:10:39;99951.13;;;7.48;100.00
78198;BME280;67472;51.554;7.812;2024-03-23T14:13:27;99948.69;;;7.56;100.00
78198;BME280;67472;51.554;7.812;2024-03-23T14:16:12;99939.75;;;7.47;100.00
78198;BME280;67472;51.554;7.812;2024-03-23T14:18:58;99951.03;;;7.90;100.00
78198;BME280;67472;51.554;7.812;2024-03-23T14:21:43;99937.78;;;8.64;100.00
78198;BME280;67472;51.554;7.812;2024-03-23T14:24:32;99931.25;;;9.07;100.00
78198;BME280;67472;51.554;7.812;2024-03-23T14:27:18;99919.78;;;9.56;100.00
78198;BME280;67472;51.554;7.812;2024-03-23T14:30:05;99890.91;;;9.64;100.00
78198;BME280;67472;51.554;7.812;2024-03-23T14:32:51;99885.06;;;9.61;100.00
78198;BME280;67472;51.554;7.812;2024-03-23T14:35:37;99889.78;;;9.77;100.00
78198;BME280;67472;51.554;7.812;2024-03-23T14:38:23;99876.88;;;9.83;100.00
78198;BME280;67472;51.554;7.812;2024-03-23T14:41:10;99872.72;;;9.71;100.00
78198;BME280;67472;51.554;7.812;2024-03-23T14:43:56;99869.00;;;9.45;100.00
78198;BME280;67472;51.554;7.812;2024-03-23T14:46:42;99861.91;;;9.07;100.00
78198;BME280;67472;51.554;7.812;2024-03-23T14:49:27;99869.13;;;9.05;100.00
78198;BME280;67472;51.554;7.812;2024-03-23T14:52:14;99865.00;;;9.31;100.00
78198;BME280;67472;51.554;7.812;2024-03-23T14:55:00;99850.41;;;9.46;100.00
78198;BME280;67472;51.554;7.812;2024-03-23T14:57:47;99859.53;;;9.81;100.00
78198;BME280;67472;51.554;7.812;2024-03-23T15:00:35;99853.44;;;9.71;100.00
78198;BME280;67472;51.554;7.812;2024-03-23T15:03:21;99845.75;;;9.87;100.00
78198;BME280;67472;51.554;7.812;2024-03-23T15:06:07;99845.84;;;10.14;100.00
78198;BME280;67472;51.554;7.812;2024-03-23T15:08:54;99827.44;;;10.32;100.00
78198;BME280;67472;51.554;7.812;2024-03-23T15:11:40;99815.75;;;10.61;100.00
78198;BME280;67472;51.554;7.812;2024-03-23T15:14:27;99817.72;;;10.77;100.00
78198;BME280;67472;51.554;7.812;2024-03-23T15:17:13;99776.06;;;10.53;93.46
78198;BME280;67472;51.554;7.812;2024-03-23T15:19:58;99768.94;;;10.54;91.91
78198;BME280;67472;51.554;7.812;2024-03-23T15:22:44;99766.16;;;10.38;91.41
78198;BME280;67472;51.554;7.812;2024-03-23T15:25:30;99774.59;;;10.04;91.76
78198;BME280;67472;51.554;7.812;2024-03-23T15:28:17;99784.44;;;9.75;91.89
78198;BME280;67472;51.554;7.812;2024-03-23T15:31:04;99794.31;;;9.73;93.43